createdAt,value
2022-10-10T00:01:30.005Z,14.74
2022-10-10T00:03:58.643Z,14.75
2022-10-10T00:06:31.795Z,14.79
2022-10-10T00:09:01.706Z,14.84
2022-10-10T00:11:30.512Z,14.84
2022-10-10T00:14:00.094Z,14.84
2022-10-10T00:16:28.276Z,14.81
2022-10-10T00:18:55.750Z,14.86
2022-10-10T00:21:23.310Z,14.80
2022-10-10T00:23:52.778Z,14.80
2022-10-10T00:26:21.729Z,14.75
2022-10-10T00:28:50.116Z,14.75
2022-10-10T00:31:18.853Z,14.78
2022-10-10T00:33:48.553Z,14.79
2022-10-10T00:36:16.159Z,14.82
2022-10-10T00:38:44.673Z,14.84
2022-10-10T00:41:12.490Z,14.82
2022-10-10T00:43:40.814Z,14.75
2022-10-10T00:46:08.376Z,14.74
2022-10-10T00:48:45.285Z,14.69
2022-10-10T00:51:18.949Z,14.65
2022-10-10T00:53:53.402Z,14.62
2022-10-10T00:56:25.355Z,14.58
2022-10-10T00:58:56.552Z,14.58
2022-10-10T01:01:24.199Z,14.60
2022-10-10T01:03:57.954Z,14.59
2022-10-10T01:06:25.648Z,14.63
2022-10-10T01:08:54.630Z,14.65
2022-10-10T01:11:40.264Z,14.69
2022-10-10T01:14:29.758Z,14.77
2022-10-10T01:17:11.239Z,14.82
2022-10-10T01:20:09.895Z,14.85
2022-10-10T01:23:03.115Z,14.87
2022-10-10T01:25:38.547Z,14.84
2022-10-10T01:28:34.291Z,14.80
2022-10-10T01:31:09.899Z,14.81
2022-10-10T01:33:55.213Z,14.84
2022-10-10T01:36:28.334Z,14.81
2022-10-10T01:39:20.387Z,14.79
2022-10-10T01:42:25.930Z,14.82
2022-10-10T01:44:54.888Z,14.83
2022-10-10T01:47:22.972Z,14.84
2022-10-10T01:49:54.573Z,14.82
2022-10-10T01:52:29.821Z,14.79
2022-10-10T01:54:57.940Z,14.84
2022-10-10T01:57:46.116Z,14.84
2022-10-10T02:00:17.419Z,14.85
2022-10-10T02:03:17.630Z,14.89
2022-10-10T02:05:57.470Z,14.90
2022-10-10T02:08:36.155Z,14.90
2022-10-10T02:11:07.116Z,14.90
2022-10-10T02:13:49.011Z,14.92
2022-10-10T02:16:25.760Z,14.91
2022-10-10T02:18:54.510Z,14.90
2022-10-10T02:21:23.662Z,14.89
2022-10-10T02:23:54.955Z,14.90
2022-10-10T02:26:24.871Z,14.87
2022-10-10T02:28:59.733Z,14.87
2022-10-10T02:31:36.388Z,14.87
2022-10-10T02:34:27.546Z,14.86
2022-10-10T02:37:02.431Z,14.89
2022-10-10T02:39:36.583Z,14.91
2022-10-10T02:42:07.781Z,14.97
2022-10-10T02:44:37.276Z,14.96
2022-10-10T02:47:06.575Z,14.96
2022-10-10T02:49:35.558Z,14.96
2022-10-10T02:52:04.630Z,14.97
2022-10-10T02:54:32.000Z,15.00
2022-10-10T02:56:59.774Z,15.01
2022-10-10T02:59:28.248Z,15.01
2022-10-10T03:01:57.450Z,15.02
2022-10-10T03:04:25.259Z,15.05
2022-10-10T03:06:53.793Z,15.10
2022-10-10T03:09:21.172Z,15.15
2022-10-10T03:11:49.062Z,15.13
2022-10-10T03:14:17.299Z,15.09
2022-10-10T03:16:45.910Z,15.05
2022-10-10T03:19:13.669Z,15.05
2022-10-10T03:21:41.126Z,15.07
2022-10-10T03:24:08.600Z,15.15
2022-10-10T03:26:36.528Z,15.11
2022-10-10T03:29:04.352Z,15.07
2022-10-10T03:31:32.696Z,15.04
2022-10-10T03:34:01.831Z,15.03
2022-10-10T03:36:30.909Z,15.00
2022-10-10T03:38:58.318Z,14.99
2022-10-10T03:41:25.943Z,14.98
2022-10-10T03:43:54.116Z,15.01
2022-10-10T03:46:22.050Z,14.98
2022-10-10T03:48:50.502Z,14.96
2022-10-10T03:51:18.430Z,14.95
2022-10-10T03:53:45.877Z,14.98
2022-10-10T03:56:14.865Z,15.00
2022-10-10T03:58:43.013Z,14.95
2022-10-10T04:01:10.969Z,14.96
2022-10-10T04:03:39.907Z,14.99
2022-10-10T04:06:07.520Z,14.94
2022-10-10T04:08:34.943Z,14.95
2022-10-10T04:11:02.460Z,14.93
2022-10-10T04:13:30.364Z,14.89
2022-10-10T04:15:59.063Z,14.97
2022-10-10T04:18:26.513Z,15.01
2022-10-10T04:20:54.323Z,15.12
2022-10-10T04:23:21.775Z,15.18
2022-10-10T04:25:54.375Z,15.24
2022-10-10T04:28:24.091Z,15.06
2022-10-10T04:30:51.604Z,15.05
2022-10-10T04:33:19.116Z,14.99
2022-10-10T04:35:48.578Z,14.82
2022-10-10T04:38:17.808Z,14.64
2022-10-10T04:40:49.379Z,14.59
2022-10-10T04:43:19.048Z,14.52
2022-10-10T04:45:46.868Z,14.52
2022-10-10T04:48:14.761Z,14.57
2022-10-10T04:50:42.134Z,14.57
2022-10-10T04:53:11.749Z,14.54
2022-10-10T04:55:39.891Z,14.53
2022-10-10T04:58:07.300Z,14.54
2022-10-10T05:00:34.726Z,14.55
2022-10-10T05:03:02.151Z,14.58
2022-10-10T05:05:29.530Z,14.58
2022-10-10T05:07:57.239Z,14.61
2022-10-10T05:10:26.104Z,14.67
2022-10-10T05:12:54.338Z,14.68
2022-10-10T05:15:22.794Z,14.70
2022-10-10T05:17:50.295Z,14.72
2022-10-10T05:20:18.930Z,14.69
2022-10-10T05:22:48.476Z,14.70
2022-10-10T05:25:16.858Z,14.80
2022-10-10T05:27:44.737Z,14.79
2022-10-10T05:30:12.788Z,14.76
2022-10-10T05:32:43.048Z,14.75
2022-10-10T05:35:13.190Z,14.75
2022-10-10T05:37:41.735Z,14.72
2022-10-10T05:40:09.576Z,14.72
2022-10-10T05:42:37.395Z,14.70
2022-10-10T05:45:05.080Z,14.72
2022-10-10T05:47:33.240Z,14.82
2022-10-10T05:50:02.433Z,14.87
2022-10-10T05:52:30.029Z,14.86
2022-10-10T05:54:57.414Z,14.82
2022-10-10T05:57:24.912Z,14.70
2022-10-10T05:59:52.320Z,14.65
2022-10-10T06:02:20.948Z,14.61
2022-10-10T06:05:04.840Z,14.67
2022-10-10T06:07:59.028Z,14.66
2022-10-10T06:10:21.796Z,14.62
2022-10-10T06:12:49.815Z,14.63
2022-10-10T06:15:18.550Z,14.65
2022-10-10T06:17:45.922Z,14.67
2022-10-10T06:20:14.895Z,14.70
2022-10-10T06:22:42.304Z,14.70
2022-10-10T06:25:29.066Z,14.73
2022-10-10T06:27:59.242Z,14.83
2022-10-10T06:30:27.052Z,14.86
2022-10-10T06:32:57.100Z,14.83
2022-10-10T06:35:25.762Z,14.79
2022-10-10T06:37:53.254Z,14.76
2022-10-10T06:40:20.604Z,14.70
2022-10-10T06:42:48.163Z,14.71
2022-10-10T06:45:19.066Z,14.69
2022-10-10T06:47:47.399Z,14.71
2022-10-10T06:50:15.186Z,14.73
2022-10-10T06:52:43.481Z,14.76
2022-10-10T06:55:10.890Z,14.78
2022-10-10T06:57:39.436Z,14.79
2022-10-10T07:00:07.841Z,14.83
2022-10-10T07:02:40.766Z,14.87
2022-10-10T07:05:12.203Z,14.90
2022-10-10T07:07:40.404Z,14.95
2022-10-10T07:10:12.877Z,14.96
2022-10-10T07:12:44.678Z,14.99
2022-10-10T07:15:12.933Z,15.01
2022-10-10T07:17:40.468Z,15.07
2022-10-10T07:20:08.735Z,15.10
2022-10-10T07:22:36.514Z,15.13
2022-10-10T07:25:07.473Z,15.21
2022-10-10T07:27:35.652Z,15.28
2022-10-10T07:30:03.114Z,15.34
2022-10-10T07:32:32.080Z,15.37
2022-10-10T07:34:59.519Z,15.43
2022-10-10T07:37:27.679Z,15.47
2022-10-10T07:39:55.491Z,15.52
2022-10-10T07:42:23.347Z,15.54
2022-10-10T07:44:50.695Z,15.60
2022-10-10T07:47:18.551Z,15.66
2022-10-10T07:49:45.946Z,15.70
2022-10-10T07:52:14.963Z,15.74
2022-10-10T07:54:43.015Z,15.77
2022-10-10T07:57:10.490Z,15.80
2022-10-10T07:59:37.994Z,15.84
2022-10-10T08:02:06.371Z,15.92
2022-10-10T08:04:36.003Z,16.03
2022-10-10T08:07:03.989Z,16.07
2022-10-10T08:09:32.937Z,16.08
2022-10-10T08:12:00.458Z,16.12
2022-10-10T08:14:27.904Z,16.18
2022-10-10T08:16:59.857Z,16.23
2022-10-10T08:19:27.985Z,16.28
2022-10-10T08:21:56.840Z,16.38
2022-10-10T08:24:25.297Z,16.52
2022-10-10T08:26:53.570Z,16.71
2022-10-10T08:29:20.951Z,16.91
2022-10-10T08:31:49.364Z,17.06
2022-10-10T08:34:17.245Z,17.09
2022-10-10T08:36:47.758Z,17.06
2022-10-10T08:39:17.415Z,17.04
2022-10-10T08:42:00.882Z,17.04
2022-10-10T08:44:46.986Z,17.18
2022-10-10T08:47:22.839Z,17.35
2022-10-10T08:49:56.950Z,17.54
2022-10-10T08:52:40.043Z,17.67
2022-10-10T08:55:23.301Z,17.80
2022-10-10T08:57:56.652Z,17.95
2022-10-10T09:00:28.510Z,18.13
2022-10-10T09:02:59.298Z,18.33
2022-10-10T09:05:32.787Z,18.67
2022-10-10T09:08:12.155Z,19.13
2022-10-10T09:10:40.495Z,19.46
2022-10-10T09:13:21.657Z,19.78
2022-10-10T09:15:59.614Z,20.59
2022-10-10T09:19:02.073Z,21.44
2022-10-10T09:21:35.205Z,21.70
2022-10-10T09:24:18.037Z,21.76
2022-10-10T09:27:05.458Z,21.62
2022-10-10T09:29:34.076Z,21.44
2022-10-10T09:32:12.100Z,21.06
2022-10-10T09:34:49.336Z,20.71
2022-10-10T09:37:45.835Z,20.52
2022-10-10T09:40:34.604Z,20.25
2022-10-10T09:43:14.384Z,20.07
2022-10-10T09:45:52.343Z,19.97
2022-10-10T09:48:25.347Z,19.98
2022-10-10T09:50:53.014Z,19.93
2022-10-10T09:53:20.476Z,19.98
2022-10-10T09:55:51.540Z,20.05
2022-10-10T09:58:39.161Z,20.24
2022-10-10T10:01:18.819Z,20.44
2022-10-10T10:04:34.405Z,20.60
2022-10-10T10:07:30.842Z,20.79
2022-10-10T10:10:20.092Z,20.94
2022-10-10T10:12:48.534Z,20.95
2022-10-10T10:15:30.068Z,20.84
2022-10-10T10:18:10.710Z,20.73
2022-10-10T10:20:41.673Z,20.64
2022-10-10T10:23:34.851Z,20.42
2022-10-10T10:26:14.989Z,20.26
2022-10-10T10:28:45.096Z,20.17
2022-10-10T10:31:31.119Z,20.15
2022-10-10T10:34:43.222Z,20.07
2022-10-10T10:37:17.721Z,20.05
2022-10-10T10:40:14.929Z,20.08
2022-10-10T10:42:45.275Z,20.16
2022-10-10T10:45:45.096Z,20.17
2022-10-10T10:48:44.168Z,20.19
2022-10-10T10:51:29.918Z,20.14
2022-10-10T10:54:03.244Z,20.13
2022-10-10T10:56:40.950Z,20.13
2022-10-10T11:00:25.797Z,20.13
2022-10-10T11:03:02.518Z,20.10
2022-10-10T11:06:06.118Z,20.03
2022-10-10T11:09:49.095Z,19.96
2022-10-10T11:12:42.642Z,19.81
2022-10-10T11:15:24.218Z,19.67
2022-10-10T11:18:00.436Z,19.49
2022-10-10T11:20:36.926Z,19.31
2022-10-10T11:23:17.718Z,19.17
2022-10-10T11:25:57.754Z,19.11
2022-10-10T11:28:33.829Z,19.06
2022-10-10T11:31:14.143Z,19.02
2022-10-10T11:33:57.236Z,18.98
2022-10-10T11:36:32.631Z,18.94
2022-10-10T11:39:30.355Z,18.89
2022-10-10T11:42:06.412Z,18.88
2022-10-10T11:44:46.758Z,18.88
2022-10-10T11:47:18.246Z,18.92
2022-10-10T11:50:01.004Z,18.97
2022-10-10T11:52:49.829Z,19.01
2022-10-10T11:55:47.734Z,19.10
2022-10-10T11:58:32.105Z,19.19
2022-10-10T12:01:25.455Z,19.34
2022-10-10T12:03:54.501Z,19.49
2022-10-10T12:06:35.458Z,19.64
2022-10-10T12:09:11.940Z,19.79
2022-10-10T12:11:56.838Z,19.95
2022-10-10T12:14:32.842Z,20.12
2022-10-10T12:17:01.164Z,20.23
2022-10-10T12:19:29.257Z,20.29
2022-10-10T12:22:05.830Z,20.27
2022-10-10T12:24:42.510Z,20.28
2022-10-10T12:27:26.663Z,20.28
2022-10-10T12:29:57.752Z,20.32
2022-10-10T12:32:41.344Z,20.49
2022-10-10T12:35:35.118Z,20.78
2022-10-10T12:38:10.928Z,21.09
2022-10-10T12:40:57.436Z,21.27
2022-10-10T12:43:38.522Z,21.32
2022-10-10T12:46:43.131Z,21.18
2022-10-10T12:49:23.335Z,20.97
2022-10-10T12:52:10.218Z,20.72
2022-10-10T12:54:44.711Z,20.47
2022-10-10T12:57:12.061Z,20.31
2022-10-10T12:59:41.500Z,20.06
2022-10-10T13:02:28.022Z,19.79
2022-10-10T13:05:00.788Z,19.53
2022-10-10T13:07:29.828Z,19.33
2022-10-10T13:10:06.878Z,19.27
2022-10-10T13:12:35.350Z,19.03
2022-10-10T13:15:02.786Z,18.80
2022-10-10T13:17:39.602Z,18.73
2022-10-10T13:20:28.125Z,18.59
2022-10-10T13:22:57.024Z,18.52
2022-10-10T13:25:24.650Z,18.35
2022-10-10T13:27:52.683Z,18.27
2022-10-10T13:30:23.417Z,18.20
2022-10-10T13:32:53.217Z,18.18
2022-10-10T13:35:24.020Z,18.10
2022-10-10T13:38:00.872Z,18.03
2022-10-10T13:40:31.069Z,17.98
2022-10-10T13:42:59.188Z,17.93
2022-10-10T13:45:44.100Z,18.02
2022-10-10T13:48:20.869Z,17.98
2022-10-10T13:51:01.766Z,18.03
2022-10-10T13:53:30.211Z,18.13
2022-10-10T13:56:04.064Z,18.10
2022-10-10T13:58:39.142Z,18.15
2022-10-10T14:01:07.371Z,18.23
2022-10-10T14:03:35.738Z,18.29
2022-10-10T14:06:05.086Z,18.40
2022-10-10T14:08:34.315Z,18.49
2022-10-10T14:11:09.033Z,18.67
2022-10-10T14:13:39.015Z,18.67
2022-10-10T14:16:32.266Z,18.63
2022-10-10T14:19:01.684Z,18.57
2022-10-10T14:21:29.057Z,18.50
2022-10-10T14:23:56.512Z,18.47
2022-10-10T14:26:25.904Z,18.46
2022-10-10T14:28:53.500Z,18.50
2022-10-10T14:31:20.992Z,18.52
2022-10-10T14:33:48.416Z,18.59
2022-10-10T14:36:16.144Z,18.57
2022-10-10T14:38:45.092Z,18.56
2022-10-10T14:41:16.108Z,18.52
2022-10-10T14:43:46.002Z,18.49
2022-10-10T14:46:20.806Z,18.43
2022-10-10T14:48:50.047Z,18.45
2022-10-10T14:51:34.883Z,18.45
2022-10-10T14:54:11.759Z,18.43
2022-10-10T14:57:09.373Z,18.44
2022-10-10T14:59:46.109Z,18.52
2022-10-10T15:02:18.634Z,18.58
2022-10-10T15:04:46.651Z,18.55
2022-10-10T15:07:15.379Z,18.54
2022-10-10T15:12:39.467Z,18.51
2022-10-10T15:15:08.856Z,18.50
2022-10-10T15:17:36.273Z,18.44
2022-10-10T15:20:06.467Z,18.40
2022-10-10T15:22:34.067Z,18.35
2022-10-10T15:25:02.711Z,18.48
2022-10-10T15:27:32.928Z,18.49
2022-10-10T15:30:02.433Z,18.47
2022-10-10T15:32:29.800Z,18.45
2022-10-10T15:34:58.311Z,18.39
2022-10-10T15:37:26.955Z,18.37
2022-10-10T15:39:56.846Z,18.39
2022-10-10T15:42:24.557Z,18.33
2022-10-10T15:44:53.126Z,18.24
2022-10-10T15:47:20.930Z,18.26
2022-10-10T15:49:49.839Z,18.24
2022-10-10T15:52:19.863Z,18.27
2022-10-10T15:54:51.270Z,18.30
2022-10-10T15:57:20.314Z,18.26
2022-10-10T15:59:47.732Z,18.17
2022-10-10T16:02:16.759Z,18.15
2022-10-10T16:04:45.812Z,18.15
2022-10-10T16:07:31.745Z,18.20
2022-10-10T16:10:03.429Z,18.16
2022-10-10T16:12:30.955Z,18.09
2022-10-10T16:15:06.019Z,18.10
2022-10-10T16:17:35.756Z,18.11
2022-10-10T16:20:03.803Z,18.06
2022-10-10T16:22:31.940Z,18.13
2022-10-10T16:27:52.950Z,18.14
2022-10-10T16:30:23.116Z,17.97
2022-10-10T16:32:50.462Z,17.78
2022-10-10T16:35:19.441Z,17.77
2022-10-10T16:37:46.923Z,17.73
2022-10-10T16:40:15.459Z,17.60
2022-10-10T16:42:42.864Z,17.51
2022-10-10T16:45:12.369Z,17.50
2022-10-10T16:47:39.730Z,17.49
2022-10-10T16:50:08.360Z,17.41
2022-10-10T16:52:38.508Z,17.36
2022-10-10T16:55:08.045Z,17.28
2022-10-10T16:57:36.787Z,17.22
2022-10-10T17:00:08.039Z,17.38
2022-10-10T17:02:38.947Z,17.25
2022-10-10T17:05:07.824Z,17.20
2022-10-10T17:07:36.575Z,17.19
2022-10-10T17:10:04.349Z,17.21
2022-10-10T17:12:33.243Z,17.19
2022-10-10T17:15:01.620Z,17.20
2022-10-10T17:17:29.385Z,17.32
2022-10-10T17:19:57.595Z,17.27
2022-10-10T17:22:26.425Z,17.19
2022-10-10T17:24:53.841Z,17.11
2022-10-10T17:27:21.327Z,17.24
2022-10-10T17:29:51.438Z,17.25
2022-10-10T17:32:20.656Z,17.32
2022-10-10T17:34:48.289Z,17.25
2022-10-10T17:37:15.886Z,17.15
2022-10-10T17:39:43.247Z,17.10
2022-10-10T17:42:10.884Z,17.19
2022-10-10T17:44:46.520Z,17.03
2022-10-10T17:47:17.873Z,16.98
2022-10-10T17:49:47.013Z,16.94
2022-10-10T17:52:18.869Z,16.91
2022-10-10T17:54:49.380Z,16.93
2022-10-10T17:57:17.700Z,16.90
2022-10-10T17:59:45.724Z,16.89
2022-10-10T18:02:18.823Z,16.79
2022-10-10T18:04:46.365Z,16.77
2022-10-10T18:07:15.147Z,16.65
2022-10-10T18:09:42.716Z,16.66
2022-10-10T18:12:10.246Z,16.65
2022-10-10T18:14:39.086Z,16.60
2022-10-10T18:17:07.229Z,16.54
2022-10-10T18:19:34.724Z,16.55
2022-10-10T18:22:03.872Z,16.55
2022-10-10T18:24:31.665Z,16.49
2022-10-10T18:26:59.105Z,16.57
2022-10-10T18:29:26.588Z,16.64
2022-10-10T18:31:54.398Z,16.63
2022-10-10T18:34:24.873Z,16.46
2022-10-10T18:36:52.283Z,16.47
2022-10-10T18:39:20.456Z,16.45
2022-10-10T18:41:47.891Z,16.36
2022-10-10T18:44:17.998Z,16.42
2022-10-10T18:46:46.337Z,16.30
2022-10-10T18:49:14.565Z,16.41
2022-10-10T18:51:43.395Z,16.42
2022-10-10T18:54:16.857Z,16.35
2022-10-10T18:56:46.977Z,16.24
2022-10-10T18:59:17.675Z,16.23
2022-10-10T19:01:46.531Z,16.15
2022-10-10T19:04:15.474Z,16.23
2022-10-10T19:06:43.604Z,16.24
2022-10-10T19:09:13.772Z,16.19
2022-10-10T19:11:44.691Z,16.06
2022-10-10T19:14:17.159Z,16.06
2022-10-10T19:16:46.807Z,15.92
2022-10-10T19:19:17.268Z,15.87
2022-10-10T19:21:47.125Z,15.79
2022-10-10T19:24:21.696Z,15.75
2022-10-10T19:26:53.477Z,15.71
2022-10-10T19:29:26.046Z,15.63
2022-10-10T19:31:56.881Z,15.66
2022-10-10T19:34:24.426Z,15.65
2022-10-10T19:36:52.363Z,15.70
2022-10-10T19:39:19.800Z,15.59
2022-10-10T19:41:49.740Z,15.53
2022-10-10T19:44:17.974Z,15.43
2022-10-10T19:46:45.824Z,15.43
2022-10-10T19:49:13.339Z,15.47
2022-10-10T19:51:41.878Z,15.41
2022-10-10T19:54:09.814Z,15.36
2022-10-10T19:56:38.507Z,15.34
2022-10-10T19:59:07.832Z,15.36
2022-10-10T20:01:35.589Z,15.32
2022-10-10T20:04:03.249Z,15.33
2022-10-10T20:06:31.542Z,15.32
2022-10-10T20:08:59.789Z,15.32
2022-10-10T20:11:29.469Z,15.22
2022-10-10T20:13:57.531Z,15.13
2022-10-10T20:16:26.947Z,15.16
2022-10-10T20:18:57.195Z,15.19
2022-10-10T20:21:31.262Z,15.23
2022-10-10T20:24:06.237Z,15.22
2022-10-10T20:26:35.630Z,15.24
2022-10-10T20:29:03.636Z,15.25
2022-10-10T20:31:34.958Z,15.17
2022-10-10T20:34:07.117Z,15.12
2022-10-10T20:36:36.183Z,15.07
2022-10-10T20:39:08.402Z,15.01
2022-10-10T20:41:38.445Z,14.96
2022-10-10T20:44:07.392Z,14.99
2022-10-10T20:46:38.743Z,15.01
2022-10-10T20:49:11.990Z,15.04
2022-10-10T20:51:39.781Z,15.00
2022-10-10T20:54:08.032Z,15.01
2022-10-10T20:56:36.077Z,15.00
2022-10-10T20:59:06.277Z,14.87
2022-10-10T21:01:35.126Z,15.00
2022-10-10T21:08:19.936Z,14.99
2022-10-10T21:10:47.510Z,14.92
2022-10-10T21:13:15.751Z,14.93
2022-10-10T21:15:45.012Z,14.94
2022-10-10T21:18:12.805Z,15.00
2022-10-10T21:20:40.480Z,14.88
2022-10-10T21:23:08.014Z,14.90
2022-10-10T21:25:40.588Z,14.92
2022-10-10T21:28:09.935Z,14.83
2022-10-10T21:30:37.367Z,14.83
2022-10-10T21:33:05.884Z,14.77
2022-10-10T21:41:19.626Z,14.70
2022-10-10T21:43:49.267Z,14.69
2022-10-10T21:46:19.771Z,14.68
2022-10-10T21:48:48.961Z,14.73
2022-10-10T21:51:16.606Z,14.69
2022-10-10T21:53:44.948Z,14.69
2022-10-10T21:56:13.316Z,14.68
2022-10-10T21:58:43.646Z,14.58
2022-10-10T22:01:23.555Z,14.54
2022-10-10T22:03:53.685Z,14.51
2022-10-10T22:06:23.436Z,14.61
2022-10-10T22:08:55.820Z,14.54
2022-10-10T22:11:25.589Z,14.49
2022-10-10T22:13:53.468Z,14.58
2022-10-10T22:16:22.122Z,14.47
2022-10-10T22:18:54.447Z,14.47
2022-10-10T22:21:28.054Z,14.52
2022-10-10T22:24:04.735Z,14.41
2022-10-10T22:26:35.191Z,14.42
2022-10-10T22:29:03.156Z,14.44
2022-10-10T22:31:30.665Z,14.32
2022-10-10T22:33:58.494Z,14.32
2022-10-10T22:36:26.624Z,14.13
2022-10-10T22:38:54.114Z,14.17
2022-10-10T22:41:22.142Z,14.31
2022-10-10T22:43:49.880Z,14.24
2022-10-10T22:46:18.254Z,14.17
2022-10-10T22:48:46.499Z,14.12
2022-10-10T22:51:17.229Z,14.06
2022-10-10T22:53:48.331Z,14.03
2022-10-10T22:56:20.140Z,13.98
2022-10-10T22:58:51.035Z,13.94
2022-10-10T23:01:22.186Z,14.02
2022-10-10T23:04:00.374Z,13.95
2022-10-10T23:06:28.657Z,13.92
2022-10-10T23:08:56.004Z,13.84
2022-10-10T23:11:23.793Z,13.79
2022-10-10T23:13:51.297Z,13.80
2022-10-10T23:16:19.519Z,13.92
2022-10-10T23:18:47.745Z,13.82
2022-10-10T23:21:15.797Z,13.82
2022-10-10T23:23:43.186Z,13.85
2022-10-10T23:26:13.248Z,13.72
2022-10-10T23:28:41.088Z,13.70
2022-10-10T23:31:12.508Z,13.76
2022-10-10T23:33:40.030Z,13.65
2022-10-10T23:36:11.489Z,13.63
2022-10-10T23:38:40.733Z,13.45
2022-10-10T23:41:10.742Z,13.45
2022-10-10T23:43:39.377Z,13.40
2022-10-10T23:46:08.033Z,13.34
2022-10-10T23:48:36.945Z,13.54
2022-10-10T23:51:05.199Z,13.59
2022-10-10T23:53:34.028Z,13.44
2022-10-10T23:56:01.932Z,13.35
2022-10-10T23:58:29.602Z,13.26
